Time;durP1;ratioP1;P1;durP2;ratioP2;P2;SDS_P1;SDS_P2;PMS_P1;PMS_P2;Temp;Humidity;BMP_temperature;BMP_pressure;BME280_temperature;BME280_humidity;BME280_pressure;Samples;Min_cycle;Max_cycle;Signal;HPM_P1;HPM_P2
2023/06/17 00:03:09;;;;;;;6.43;5.60;;;;;;;;;;10136926;28;20049;-67
2023/06/17 00:08:03;;;;;;;7.45;5.78;;;;;;;;;;10142588;28;20135;-68
2023/06/17 00:12:58;;;;;;;5.90;4.93;;;;;;;;;;10144187;28;20057;-68
2023/06/17 00:17:52;;;;;;;5.18;4.65;;;;;;;;;;10143398;28;20109;-68
2023/06/17 00:22:46;;;;;;;5.75;5.25;;;;;;;;;;10142893;28;20102;-68
2023/06/17 00:27:40;;;;;;;7.15;5.65;;;;;;;;;;10143585;28;20511;-68
2023/06/17 00:32:34;;;;;;;5.63;4.95;;;;;;;;;;10143964;28;20127;-68
2023/06/17 00:37:28;;;;;;;5.90;5.32;;;;;;;;;;10143130;28;20407;-68
2023/06/17 00:42:21;;;;;;;9.70;5.57;;;;;;;;;;10138433;28;20049;-68
2023/06/17 00:47:14;;;;;;;6.70;5.45;;;;;;;;;;10135245;28;20407;-67
2023/06/17 00:52:10;;;;;;;7.85;6.47;;;;;;;;;;10128919;28;20569;-68
2023/06/17 00:57:23;;;;;;;7.15;6.55;;;;;;;;;;10148715;28;20403;-68
2023/06/17 01:02:17;;;;;;;7.80;6.68;;;;;;;;;;10148942;28;20114;-68
2023/06/17 01:07:42;;;;;;;7.20;6.00;;;;;;;;;;10150023;28;20055;-67
2023/06/17 01:12:35;;;;;;;12.48;6.25;;;;;;;;;;10143731;28;20048;-68
2023/06/17 01:17:30;;;;;;;7.00;6.28;;;;;;;;;;10119982;28;20052;-68
2023/06/17 01:22:24;;;;;;;7.68;5.65;;;;;;;;;;10148766;28;20102;-68
2023/06/17 01:27:17;;;;;;;7.70;6.03;;;;;;;;;;10148683;28;20601;-68
2023/06/17 01:32:13;;;;;;;6.43;5.30;;;;;;;;;;10148658;28;20060;-68
2023/06/17 01:37:09;;;;;;;7.05;6.28;;;;;;;;;;10110476;28;20064;-68
2023/06/17 01:42:02;;;;;;;6.18;5.57;;;;;;;;;;10122508;28;20059;-68
2023/06/17 01:46:56;;;;;;;6.63;5.88;;;;;;;;;;10105685;28;20059;-68
2023/06/17 01:51:50;;;;;;;6.82;4.72;;;;;;;;;;10132548;28;20131;-68
2023/06/17 01:56:46;;;;;;;5.43;4.93;;;;;;;;;;10138056;28;20048;-68
2023/06/17 02:01:41;;;;;;;7.93;5.20;;;;;;;;;;10142445;28;20079;-68
2023/06/17 02:06:37;;;;;;;8.27;7.50;;;;;;;;;;10139029;28;20491;-68
2023/06/17 02:11:30;;;;;;;8.23;7.30;;;;;;;;;;10145017;28;20060;-67
2023/06/17 02:16:23;;;;;;;7.45;6.57;;;;;;;;;;10111389;28;20044;-67
2023/06/17 02:21:16;;;;;;;8.20;7.40;;;;;;;;;;10113955;28;20512;-67
2023/06/17 02:26:10;;;;;;;10.15;7.63;;;;;;;;;;10134698;28;20132;-67
2023/06/17 02:31:03;;;;;;;7.55;6.63;;;;;;;;;;10121644;28;20049;-68
2023/06/17 02:35:57;;;;;;;8.60;5.82;;;;;;;;;;10144558;28;20041;-67
2023/06/17 02:40:51;;;;;;;8.85;6.15;;;;;;;;;;10138126;28;20541;-67
2023/06/17 02:45:45;;;;;;;6.40;5.78;;;;;;;;;;10145890;28;20441;-68
2023/06/17 02:50:40;;;;;;;7.63;6.90;;;;;;;;;;10144810;28;20576;-68
2023/06/17 02:55:34;;;;;;;10.00;7.00;;;;;;;;;;10144237;28;20056;-67
2023/06/17 03:00:36;;;;;;;9.45;6.68;;;;;;;;;;10144142;28;20135;-67
2023/06/17 03:05:30;;;;;;;10.75;7.55;;;;;;;;;;10112443;28;20078;-67
2023/06/17 03:10:24;;;;;;;8.50;7.63;;;;;;;;;;10124142;28;20048;-67
2023/06/17 03:15:27;;;;;;;9.75;8.32;;;;;;;;;;10134407;28;20041;-68
2023/06/17 03:20:28;;;;;;;10.15;7.80;;;;;;;;;;10105672;28;20485;-67
2023/06/17 03:25:24;;;;;;;10.55;9.60;;;;;;;;;;10126664;28;20052;-67
2023/06/17 03:30:18;;;;;;;11.38;10.18;;;;;;;;;;10118994;28;20477;-67
2023/06/17 03:35:11;;;;;;;11.88;10.60;;;;;;;;;;10141110;28;20044;-67
2023/06/17 03:40:05;;;;;;;11.52;10.32;;;;;;;;;;10111409;28;20056;-67
2023/06/17 03:45:00;;;;;;;13.13;9.98;;;;;;;;;;10108222;28;20056;-68
2023/06/17 03:49:56;;;;;;;10.23;9.18;;;;;;;;;;10130951;28;20465;-67
2023/06/17 03:54:49;;;;;;;12.63;10.52;;;;;;;;;;10144602;28;20052;-67
2023/06/17 03:59:43;;;;;;;13.18;11.95;;;;;;;;;;10126250;28;20064;-67
2023/06/17 04:04:35;;;;;;;12.10;10.95;;;;;;;;;;10143379;28;20049;-67
2023/06/17 04:09:31;;;;;;;12.10;10.45;;;;;;;;;;10143273;28;20102;-68
2023/06/17 04:14:25;;;;;;;12.82;11.60;;;;;;;;;;10133267;28;20079;-67
2023/06/17 04:19:18;;;;;;;14.68;13.20;;;;;;;;;;10156430;28;20063;-67
2023/06/17 04:24:12;;;;;;;16.17;13.05;;;;;;;;;;10139460;28;20037;-67
2023/06/17 04:29:06;;;;;;;14.95;12.90;;;;;;;;;;10164337;28;20052;-68
2023/06/17 04:34:00;;;;;;;15.05;13.70;;;;;;;;;;10150132;28;20094;-67
2023/06/17 04:38:54;;;;;;;14.95;13.07;;;;;;;;;;10139243;28;20045;-67
2023/06/17 04:43:48;;;;;;;15.23;13.68;;;;;;;;;;10144534;28;20072;-67
2023/06/17 04:48:43;;;;;;;15.55;14.15;;;;;;;;;;10129039;28;20045;-68
2023/06/17 04:53:40;;;;;;;15.45;13.93;;;;;;;;;;10141397;28;20063;-67
2023/06/17 04:58:34;;;;;;;15.02;13.43;;;;;;;;;;10146835;28;20491;-67
2023/06/17 05:03:32;;;;;;;14.02;12.63;;;;;;;;;;10139986;28;20078;-68
2023/06/17 05:08:27;;;;;;;14.70;13.30;;;;;;;;;;10148516;28;20049;-68
2023/06/17 05:13:22;;;;;;;16.77;13.25;;;;;;;;;;10135782;28;20082;-67
2023/06/17 05:18:18;;;;;;;16.42;13.77;;;;;;;;;;10111461;28;20144;-68
2023/06/17 05:23:11;;;;;;;14.85;12.93;;;;;;;;;;10136413;28;20430;-68
2023/06/17 05:28:10;;;;;;;13.25;11.95;;;;;;;;;;10148061;28;20577;-67
2023/06/17 05:33:05;;;;;;;14.18;12.82;;;;;;;;;;10147978;28;20531;-67
2023/06/17 05:37:59;;;;;;;14.13;12.73;;;;;;;;;;10147928;28;20506;-67
2023/06/17 05:42:53;;;;;;;16.88;12.68;;;;;;;;;;10147563;28;20090;-67
2023/06/17 05:47:47;;;;;;;13.65;12.32;;;;;;;;;;10142634;28;20125;-67
2023/06/17 05:52:41;;;;;;;12.45;10.98;;;;;;;;;;10144946;28;20044;-67
2023/06/17 05:57:34;;;;;;;12.77;11.38;;;;;;;;;;10147746;28;20040;-67
2023/06/17 06:02:27;;;;;;;15.50;11.32;;;;;;;;;;10146785;28;20064;-67
2023/06/17 06:07:21;;;;;;;13.10;11.38;;;;;;;;;;10130711;28;20055;-68
2023/06/17 06:12:17;;;;;;;12.50;11.18;;;;;;;;;;10132629;28;20049;-68
2023/06/17 06:17:10;;;;;;;13.30;11.40;;;;;;;;;;10144095;28;20048;-66
2023/06/17 06:22:04;;;;;;;15.32;12.13;;;;;;;;;;10144637;28;20396;-66
2023/06/17 06:26:58;;;;;;;13.70;11.70;;;;;;;;;;10146842;28;20068;-67
2023/06/17 06:31:51;;;;;;;13.98;12.18;;;;;;;;;;10129931;28;20075;-63
2023/06/17 06:36:45;;;;;;;19.15;13.38;;;;;;;;;;10145137;28;20048;-64
2023/06/17 06:41:39;;;;;;;12.88;11.18;;;;;;;;;;10128350;28;20071;-67
2023/06/17 06:47:05;;;;;;;14.10;10.95;;;;;;;;;;10099754;28;20060;-65
2023/06/17 06:51:58;;;;;;;14.95;12.35;;;;;;;;;;10128742;28;20423;-66
2023/06/17 06:56:54;;;;;;;11.38;9.95;;;;;;;;;;10117823;28;20446;-67
2023/06/17 07:01:47;;;;;;;11.52;10.43;;;;;;;;;;10109951;28;20054;-67
2023/06/17 07:06:41;;;;;;;12.05;9.45;;;;;;;;;;10115793;28;20071;-67
2023/06/17 07:11:39;;;;;;;11.77;10.77;;;;;;;;;;10106219;28;20056;-67
2023/06/17 07:16:33;;;;;;;12.38;10.15;;;;;;;;;;10130762;28;20454;-67
2023/06/17 07:21:28;;;;;;;10.75;9.68;;;;;;;;;;10130171;28;20134;-67
2023/06/17 07:26:22;;;;;;;10.10;9.15;;;;;;;;;;10131003;28;20044;-67
2023/06/17 07:31:16;;;;;;;15.10;10.48;;;;;;;;;;10143174;28;20049;-66
2023/06/17 07:36:10;;;;;;;10.65;9.55;;;;;;;;;;10143644;28;20075;-68
2023/06/17 07:41:03;;;;;;;11.10;9.65;;;;;;;;;;10129912;28;20090;-67
2023/06/17 07:45:58;;;;;;;12.05;10.40;;;;;;;;;;10130149;28;20064;-67
2023/06/17 07:50:52;;;;;;;10.60;9.60;;;;;;;;;;10145014;28;20056;-67
2023/06/17 07:55:47;;;;;;;15.25;9.98;;;;;;;;;;10143215;28;20056;-67
2023/06/17 08:00:41;;;;;;;15.65;9.98;;;;;;;;;;10148364;28;20060;-67
2023/06/17 08:05:36;;;;;;;10.90;9.80;;;;;;;;;;10151820;28;20053;-67
2023/06/17 08:10:30;;;;;;;11.68;9.48;;;;;;;;;;10139092;28;20491;-67
2023/06/17 08:15:23;;;;;;;10.73;9.65;;;;;;;;;;10139813;28;20056;-67
2023/06/17 08:20:16;;;;;;;16.27;10.43;;;;;;;;;;10150317;28;20422;-68
2023/06/17 08:25:11;;;;;;;9.95;9.10;;;;;;;;;;10150984;28;20048;-68
2023/06/17 08:30:06;;;;;;;11.27;9.90;;;;;;;;;;10150248;28;20415;-67
2023/06/17 08:35:05;;;;;;;15.48;8.38;;;;;;;;;;10152209;28;20059;-68
2023/06/17 08:40:00;;;;;;;9.02;7.80;;;;;;;;;;10151244;28;20071;-67
2023/06/17 08:44:54;;;;;;;9.15;8.23;;;;;;;;;;10149551;28;20427;-68
2023/06/17 08:49:47;;;;;;;11.07;8.27;;;;;;;;;;10148637;28;20110;-68
2023/06/17 08:54:41;;;;;;;10.52;7.82;;;;;;;;;;10150348;28;20583;-68
2023/06/17 08:59:33;;;;;;;9.25;7.65;;;;;;;;;;10149135;28;20061;-68
2023/06/17 09:04:26;;;;;;;9.00;8.00;;;;;;;;;;10148135;28;20120;-68
2023/06/17 09:09:21;;;;;;;9.35;8.45;;;;;;;;;;10136296;28;20044;-67
2023/06/17 09:14:17;;;;;;;12.00;8.35;;;;;;;;;;10116801;28;20048;-67
2023/06/17 09:19:13;;;;;;;10.20;7.25;;;;;;;;;;10138862;28;20044;-68
2023/06/17 09:24:08;;;;;;;10.52;7.68;;;;;;;;;;10147536;28;20507;-68
2023/06/17 09:29:05;;;;;;;7.15;6.50;;;;;;;;;;10147296;28;20042;-68
2023/06/17 09:33:59;;;;;;;12.60;7.55;;;;;;;;;;10114266;28;20056;-68
2023/06/17 09:38:53;;;;;;;8.63;7.45;;;;;;;;;;10143426;28;20088;-68
2023/06/17 09:43:52;;;;;;;7.90;6.38;;;;;;;;;;10144750;28;20131;-68
2023/06/17 09:48:47;;;;;;;7.53;6.13;;;;;;;;;;10143668;28;20123;-68
2023/06/17 09:53:41;;;;;;;6.82;5.60;;;;;;;;;;10133892;28;20579;-68
2023/06/17 09:58:35;;;;;;;9.00;5.57;;;;;;;;;;10149776;28;20098;-68
2023/06/17 10:03:28;;;;;;;10.40;5.72;;;;;;;;;;10142740;28;20080;-68
2023/06/17 10:08:22;;;;;;;6.22;4.53;;;;;;;;;;10143192;28;20053;-68
2023/06/17 10:13:19;;;;;;;6.35;4.72;;;;;;;;;;10131779;28;20174;-66
2023/06/17 10:18:14;;;;;;;5.72;4.18;;;;;;;;;;10129628;28;20164;-66
2023/06/17 10:23:06;;;;;;;5.88;4.45;;;;;;;;;;10119840;28;20060;-66
2023/06/17 10:28:04;;;;;;;5.07;4.15;;;;;;;;;;10124175;28;20056;-66
2023/06/17 10:33:01;;;;;;;4.80;4.30;;;;;;;;;;10130272;28;20068;-66
2023/06/17 10:37:54;;;;;;;6.10;3.90;;;;;;;;;;10134982;28;20051;-66
2023/06/17 10:42:57;;;;;;;5.22;4.07;;;;;;;;;;10132609;28;20079;-66
2023/06/17 10:47:50;;;;;;;5.30;3.70;;;;;;;;;;10125843;28;20057;-66
2023/06/17 10:52:46;;;;;;;4.37;3.83;;;;;;;;;;10133066;28;20051;-67
2023/06/17 10:57:39;;;;;;;5.20;3.35;;;;;;;;;;10146646;28;20045;-66
2023/06/17 11:02:33;;;;;;;;;;;;;;;;;;10145959;28;20067;-66
2023/06/17 11:07:27;;;;;;;5.53;3.97;;;;;;;;;;10132361;28;20411;-66
2023/06/17 11:12:21;;;;;;;4.80;3.70;;;;;;;;;;10144525;28;20045;-66
2023/06/17 11:17:14;;;;;;;4.57;3.83;;;;;;;;;;10144482;28;20388;-68
2023/06/17 11:22:08;;;;;;;4.38;3.22;;;;;;;;;;10143716;28;20094;-67
2023/06/17 11:27:02;;;;;;;3.55;2.85;;;;;;;;;;10135162;28;20079;-67
2023/06/17 11:31:58;;;;;;;5.40;3.47;;;;;;;;;;10123819;28;20053;-67
2023/06/17 11:36:53;;;;;;;3.45;2.83;;;;;;;;;;10145319;28;20074;-67
2023/06/17 11:41:46;;;;;;;3.25;2.65;;;;;;;;;;10140825;28;20052;-68
2023/06/17 11:46:42;;;;;;;5.38;3.25;;;;;;;;;;10144855;28;20052;-67
2023/06/17 11:51:38;;;;;;;4.53;2.83;;;;;;;;;;10145427;28;20056;-67
2023/06/17 11:56:32;;;;;;;2.90;2.60;;;;;;;;;;10144978;28;20503;-67
2023/06/17 12:01:26;;;;;;;7.32;2.80;;;;;;;;;;10144783;28;20143;-67
2023/06/17 12:06:19;;;;;;;7.82;2.83;;;;;;;;;;10131645;28;20143;-67
2023/06/17 12:11:29;;;;;;;4.22;2.67;;;;;;;;;;10130811;28;20060;-67
2023/06/17 12:16:30;;;;;;;4.18;2.75;;;;;;;;;;10142893;28;20056;-67
2023/06/17 12:21:24;;;;;;;8.63;2.60;;;;;;;;;;10143756;28;20118;-68
2023/06/17 12:26:18;;;;;;;4.63;3.40;;;;;;;;;;10144693;28;20102;-67
2023/06/17 12:31:12;;;;;;;3.08;2.70;;;;;;;;;;10143095;28;20094;-68
2023/06/17 12:36:06;;;;;;;3.97;2.90;;;;;;;;;;10142931;28;20049;-68
2023/06/17 12:41:00;;;;;;;3.80;2.42;;;;;;;;;;10141377;28;20519;-68
2023/06/17 12:45:54;;;;;;;;;;;;;;;;;;10141880;28;20535;-68
2023/06/17 12:50:48;;;;;;;5.22;2.20;;;;;;;;;;10150899;28;19928;-68
2023/06/17 12:55:43;;;;;;;6.35;2.85;;;;;;;;;;10151362;28;20120;-68
2023/06/17 13:00:36;;;;;;;;;;;;;;;;;;10141712;28;20060;-69
2023/06/17 13:05:29;;;;;;;2.92;2.70;;;;;;;;;;10132952;28;19942;-69
2023/06/17 13:10:23;;;;;;;5.43;2.53;;;;;;;;;;10127322;28;20123;-69
2023/06/17 13:15:17;;;;;;;6.05;3.95;;;;;;;;;;10137763;28;20105;-69
2023/06/17 13:20:12;;;;;;;5.20;2.72;;;;;;;;;;10149675;28;20056;-68
2023/06/17 13:25:08;;;;;;;2.35;2.15;;;;;;;;;;10149420;28;20098;-68
2023/06/17 13:30:02;;;;;;;2.90;2.60;;;;;;;;;;10148539;28;20076;-68
2023/06/17 13:34:55;;;;;;;5.85;3.60;;;;;;;;;;10148544;28;20060;-68
2023/06/17 13:39:49;;;;;;;13.10;3.42;;;;;;;;;;10141208;28;20052;-68
2023/06/17 13:44:44;;;;;;;6.28;3.20;;;;;;;;;;10148712;28;20056;-68
2023/06/17 13:49:37;;;;;;;2.85;2.50;;;;;;;;;;10148504;28;20503;-68
2023/06/17 13:54:33;;;;;;;;;;;;;;;;;;10148961;28;20076;-68
2023/06/17 13:59:26;;;;;;;3.63;3.28;;;;;;;;;;10134496;28;20363;-67
2023/06/17 14:04:20;;;;;;;17.70;4.57;;;;;;;;;;10122642;28;20147;-67
2023/06/17 14:09:14;;;;;;;4.68;2.90;;;;;;;;;;10123231;28;20057;-67
2023/06/17 14:14:07;;;;;;;5.35;4.15;;;;;;;;;;10123988;28;20048;-67
2023/06/17 14:19:01;;;;;;;6.78;4.57;;;;;;;;;;10122913;28;20060;-67
2023/06/17 14:24:03;;;;;;;5.80;3.60;;;;;;;;;;10122682;28;20053;-67
2023/06/17 14:28:56;;;;;;;6.50;3.78;;;;;;;;;;10104293;28;20064;-67
2023/06/17 14:33:51;;;;;;;5.13;3.63;;;;;;;;;;10070497;28;20049;-67
2023/06/17 14:38:45;;;;;;;4.82;3.42;;;;;;;;;;10074740;28;20045;-67
2023/06/17 14:43:40;;;;;;;4.30;3.42;;;;;;;;;;10068116;28;20045;-67
2023/06/17 14:48:33;;;;;;;5.30;4.15;;;;;;;;;;10084692;28;20046;-67
2023/06/17 14:53:51;;;;;;;5.53;3.47;;;;;;;;;;10116503;28;20048;-67
2023/06/17 14:58:46;;;;;;;9.98;4.40;;;;;;;;;;10146937;28;20522;-67
2023/06/17 15:03:38;;;;;;;4.10;3.70;;;;;;;;;;10146214;28;20127;-67
2023/06/17 15:08:32;;;;;;;5.55;4.05;;;;;;;;;;10144935;28;20404;-67
2023/06/17 15:13:26;;;;;;;5.85;4.22;;;;;;;;;;10145694;28;20045;-67
2023/06/17 15:18:20;;;;;;;10.52;4.93;;;;;;;;;;10143867;28;20048;-66
2023/06/17 15:23:13;;;;;;;4.40;3.40;;;;;;;;;;10144914;28;20059;-67
2023/06/17 15:28:07;;;;;;;5.07;4.00;;;;;;;;;;10131069;28;20053;-67
2023/06/17 15:33:02;;;;;;;4.53;4.13;;;;;;;;;;10145787;28;20127;-67
2023/06/17 15:37:55;;;;;;;4.82;4.30;;;;;;;;;;10145392;28;20135;-67
2023/06/17 15:42:49;;;;;;;6.00;4.30;;;;;;;;;;10145210;28;20579;-67
2023/06/17 15:47:43;;;;;;;4.85;4.18;;;;;;;;;;10144736;28;20102;-67
2023/06/17 15:52:37;;;;;;;4.90;3.60;;;;;;;;;;10117569;28;20052;-67
2023/06/17 15:57:30;;;;;;;6.57;4.43;;;;;;;;;;10120312;28;20060;-67
2023/06/17 16:02:23;;;;;;;4.22;3.72;;;;;;;;;;10142171;28;20454;-67
2023/06/17 16:07:17;;;;;;;11.43;4.35;;;;;;;;;;10120683;28;20088;-67
2023/06/17 16:12:14;;;;;;;4.70;4.22;;;;;;;;;;10115096;28;20498;-67
2023/06/17 16:17:08;;;;;;;5.97;4.80;;;;;;;;;;10117708;28;20049;-67
2023/06/17 16:22:09;;;;;;;8.73;4.53;;;;;;;;;;10134134;28;20382;-68
2023/06/17 16:27:04;;;;;;;4.47;4.05;;;;;;;;;;10121888;28;20071;-69
2023/06/17 16:31:58;;;;;;;7.10;4.07;;;;;;;;;;10116173;28;20061;-68
2023/06/17 16:36:51;;;;;;;7.07;4.60;;;;;;;;;;10120655;28;20118;-69
2023/06/17 16:41:44;;;;;;;6.32;4.70;;;;;;;;;;10119855;28;20048;-69
2023/06/17 16:46:38;;;;;;;7.32;4.93;;;;;;;;;;10145531;28;20052;-69
2023/06/17 16:51:32;;;;;;;4.35;3.80;;;;;;;;;;10117863;28;20094;-68
2023/06/17 16:56:26;;;;;;;6.63;4.32;;;;;;;;;;10150970;28;20090;-69
2023/06/17 17:01:19;;;;;;;7.20;4.90;;;;;;;;;;10151479;28;20071;-69
2023/06/17 17:06:13;;;;;;;8.40;5.00;;;;;;;;;;10136324;28;20045;-69
2023/06/17 17:11:07;;;;;;;7.00;4.55;;;;;;;;;;10149674;28;20135;-66
2023/06/17 17:16:01;;;;;;;7.53;4.53;;;;;;;;;;10129280;28;20114;-68
2023/06/17 17:20:56;;;;;;;6.70;4.57;;;;;;;;;;10149566;28;20048;-68
2023/06/17 17:25:50;;;;;;;7.45;4.50;;;;;;;;;;10150117;28;20052;-69
2023/06/17 17:30:44;;;;;;;8.40;4.30;;;;;;;;;;10121897;28;20101;-70
2023/06/17 17:35:38;;;;;;;6.47;5.22;;;;;;;;;;10144634;28;20056;-68
2023/06/17 17:40:32;;;;;;;8.05;5.55;;;;;;;;;;10140729;28;20068;-68
2023/06/17 17:45:25;;;;;;;5.07;4.57;;;;;;;;;;10149320;28;20058;-65
2023/06/17 17:50:19;;;;;;;6.53;4.60;;;;;;;;;;10135893;28;20466;-65
2023/06/17 17:55:12;;;;;;;8.43;4.25;;;;;;;;;;10140944;28;20071;-68
2023/06/17 18:00:08;;;;;;;6.78;4.78;;;;;;;;;;10133262;28;20541;-65
2023/06/17 18:05:06;;;;;;;7.20;4.70;;;;;;;;;;10134610;28;20063;-65
2023/06/17 18:10:00;;;;;;;7.40;6.25;;;;;;;;;;10147629;28;20052;-69
2023/06/17 18:14:54;;;;;;;6.90;4.93;;;;;;;;;;10148059;28;20079;-70
2023/06/17 18:19:48;;;;;;;8.68;5.65;;;;;;;;;;10147762;28;20139;-70
2023/06/17 18:24:40;;;;;;;8.13;6.35;;;;;;;;;;10147737;28;20049;-70
2023/06/17 18:29:34;;;;;;;8.82;5.75;;;;;;;;;;10147980;28;20041;-69
2023/06/17 18:34:29;;;;;;;10.35;7.50;;;;;;;;;;10138439;28;20053;-68
2023/06/17 18:39:22;;;;;;;10.32;7.32;;;;;;;;;;10146975;28;20056;-69
2023/06/17 18:44:16;;;;;;;7.50;5.97;;;;;;;;;;10146942;28;20140;-68
2023/06/17 18:49:23;;;;;;;8.52;7.40;;;;;;;;;;10119297;28;20511;-69
2023/06/17 18:54:16;;;;;;;10.73;9.57;;;;;;;;;;10133808;28;20060;-65
2023/06/17 18:59:10;;;;;;;22.30;13.95;;;;;;;;;;10136302;28;20059;-68
2023/06/17 19:04:04;;;;;;;13.73;7.63;;;;;;;;;;10140494;28;20063;-68
2023/06/17 19:08:58;;;;;;;11.32;7.15;;;;;;;;;;10130027;28;20060;-69
2023/06/17 19:13:52;;;;;;;7.82;6.28;;;;;;;;;;10133737;28;20052;-69
2023/06/17 19:18:47;;;;;;;6.93;6.10;;;;;;;;;;10129366;28;20072;-69
2023/06/17 19:23:40;;;;;;;22.52;14.55;;;;;;;;;;10134933;28;20499;-69
2023/06/17 19:28:34;;;;;;;19.67;13.95;;;;;;;;;;10137554;28;20426;-69
2023/06/17 19:33:28;;;;;;;14.52;10.70;;;;;;;;;;10133416;28;20044;-69
2023/06/17 19:38:22;;;;;;;15.00;8.75;;;;;;;;;;10139199;28;20048;-69
2023/06/17 19:43:21;;;;;;;10.73;7.05;;;;;;;;;;10132077;28;20114;-69
2023/06/17 19:48:16;;;;;;;12.07;7.88;;;;;;;;;;10130995;28;20190;-69
2023/06/17 19:53:10;;;;;;;10.93;8.38;;;;;;;;;;10144559;28;20079;-70
2023/06/17 19:58:04;;;;;;;10.50;7.28;;;;;;;;;;10144877;28;20399;-69
2023/06/17 20:02:58;;;;;;;7.57;6.70;;;;;;;;;;10145566;28;20052;-69
2023/06/17 20:07:53;;;;;;;14.30;8.95;;;;;;;;;;10142023;28;20106;-69
2023/06/17 20:12:47;;;;;;;13.32;6.63;;;;;;;;;;10144032;28;20049;-69
2023/06/17 20:17:41;;;;;;;8.65;7.80;;;;;;;;;;10143827;28;20569;-69
2023/06/17 20:22:35;;;;;;;9.10;7.20;;;;;;;;;;10144029;28;20044;-68
2023/06/17 20:27:29;;;;;;;9.38;7.93;;;;;;;;;;10144922;28;20072;-69
2023/06/17 20:32:23;;;;;;;8.90;6.82;;;;;;;;;;10142749;28;20052;-68
2023/06/17 20:37:17;;;;;;;7.97;6.38;;;;;;;;;;10137105;28;20573;-69
2023/06/17 20:42:11;;;;;;;9.02;6.25;;;;;;;;;;10123917;28;20411;-69
2023/06/17 20:47:04;;;;;;;7.95;5.63;;;;;;;;;;10130569;28;20053;-69
2023/06/17 20:51:59;;;;;;;9.27;6.57;;;;;;;;;;10124186;28;20127;-69
2023/06/17 20:56:54;;;;;;;10.15;6.78;;;;;;;;;;10117862;28;20055;-69
2023/06/17 21:01:48;;;;;;;7.00;6.30;;;;;;;;;;10136611;28;20139;-69
2023/06/17 21:06:41;;;;;;;7.70;6.30;;;;;;;;;;10143930;28;20040;-69
2023/06/17 21:11:35;;;;;;;7.70;5.57;;;;;;;;;;10144753;28;20087;-69
2023/06/17 21:16:28;;;;;;;5.28;4.75;;;;;;;;;;10141542;28;20074;-69
2023/06/17 21:21:22;;;;;;;6.70;4.63;;;;;;;;;;10150281;28;20109;-69
2023/06/17 21:26:15;;;;;;;5.72;5.05;;;;;;;;;;10150154;28;20702;-69
2023/06/17 21:31:10;;;;;;;10.13;7.22;;;;;;;;;;10147520;28;20046;-69
2023/06/17 21:36:02;;;;;;;6.20;5.50;;;;;;;;;;10147539;28;20092;-68
2023/06/17 21:40:57;;;;;;;6.40;5.80;;;;;;;;;;10149871;28;20060;-68
2023/06/17 21:45:51;;;;;;;7.05;6.43;;;;;;;;;;10119336;28;20067;-68
2023/06/17 21:50:45;;;;;;;9.13;5.70;;;;;;;;;;10148902;28;20135;-69
2023/06/17 21:55:38;;;;;;;9.40;5.07;;;;;;;;;;10135174;28;20067;-69
2023/06/17 22:00:33;;;;;;;9.32;6.22;;;;;;;;;;10149393;28;20064;-69
2023/06/17 22:05:29;;;;;;;8.18;6.00;;;;;;;;;;10146119;28;20045;-69
2023/06/17 22:10:23;;;;;;;8.93;5.65;;;;;;;;;;10146482;28;20051;-69
2023/06/17 22:15:16;;;;;;;6.35;5.75;;;;;;;;;;10146417;28;20053;-69
2023/06/17 22:20:12;;;;;;;7.65;6.53;;;;;;;;;;10147543;28;20416;-69
2023/06/17 22:25:07;;;;;;;7.72;5.78;;;;;;;;;;10146348;28;20440;-70
2023/06/17 22:30:02;;;;;;;10.93;5.35;;;;;;;;;;10145302;28;20048;-68
2023/06/17 22:34:57;;;;;;;6.25;5.65;;;;;;;;;;10145881;28;20078;-68
2023/06/17 22:39:51;;;;;;;6.03;5.13;;;;;;;;;;10133285;28;20053;-68
2023/06/17 22:44:45;;;;;;;5.55;4.93;;;;;;;;;;10133760;28;20053;-68
2023/06/17 22:49:39;;;;;;;6.15;5.55;;;;;;;;;;10144864;28;20048;-69
2023/06/17 22:54:32;;;;;;;5.95;5.07;;;;;;;;;;10119589;28;20135;-69
2023/06/17 22:59:25;;;;;;;8.20;5.03;;;;;;;;;;10137836;28;20128;-69
2023/06/17 23:04:19;;;;;;;8.82;5.72;;;;;;;;;;10142827;28;20044;-69
2023/06/17 23:09:13;;;;;;;7.85;5.28;;;;;;;;;;10145854;28;20052;-69
2023/06/17 23:14:08;;;;;;;6.47;5.38;;;;;;;;;;10145994;28;20067;-69
2023/06/17 23:19:01;;;;;;;7.03;5.25;;;;;;;;;;10131770;28;20052;-69
2023/06/17 23:23:54;;;;;;;8.38;5.38;;;;;;;;;;10131970;28;20482;-69
2023/06/17 23:28:48;;;;;;;6.13;5.53;;;;;;;;;;10145271;28;20075;-69
2023/06/17 23:33:43;;;;;;;6.25;4.93;;;;;;;;;;10144664;28;20056;-69
2023/06/17 23:38:39;;;;;;;5.53;5.00;;;;;;;;;;10131470;28;20056;-69
2023/06/17 23:49:39;;;;;;;5.75;4.82;;;;;;;;;;10127520;28;20445;-65
